sensor_id;sensor_type;location;lat;lon;timestamp;temperature;humidity
17348;DHT22;8791;50.876;4.342;2022-10-16T00:01:10;15.00;99.90
17348;DHT22;8791;50.876;4.342;2022-10-16T00:03:38;15.00;99.90
17348;DHT22;8791;50.876;4.342;2022-10-16T00:06:06;15.00;99.90
17348;DHT22;8791;50.876;4.342;2022-10-16T00:08:35;15.00;99.90
17348;DHT22;8791;50.876;4.342;2022-10-16T00:11:04;15.00;99.90
17348;DHT22;8791;50.876;4.342;2022-10-16T00:13:32;14.90;99.90
17348;DHT22;8791;50.876;4.342;2022-10-16T00:16:00;14.90;99.90
17348;DHT22;8791;50.876;4.342;2022-10-16T00:18:28;14.90;99.90
17348;DHT22;8791;50.876;4.342;2022-10-16T00:21:00;14.90;99.90
17348;DHT22;8791;50.876;4.342;2022-10-16T00:23:27;15.00;99.90
17348;DHT22;8791;50.876;4.342;2022-10-16T00:25:56;14.90;99.90
17348;DHT22;8791;50.876;4.342;2022-10-16T00:28:23;14.90;99.90
17348;DHT22;8791;50.876;4.342;2022-10-16T00:30:51;15.00;99.90
17348;DHT22;8791;50.876;4.342;2022-10-16T00:33:18;15.00;99.90
17348;DHT22;8791;50.876;4.342;2022-10-16T00:35:45;15.00;99.90
17348;DHT22;8791;50.876;4.342;2022-10-16T00:38:12;14.80;99.90
17348;DHT22;8791;50.876;4.342;2022-10-16T00:40:39;14.80;99.90
17348;DHT22;8791;50.876;4.342;2022-10-16T00:43:12;14.80;99.90
17348;DHT22;8791;50.876;4.342;2022-10-16T00:45:40;14.90;99.90
17348;DHT22;8791;50.876;4.342;2022-10-16T00:48:11;14.90;99.90
17348;DHT22;8791;50.876;4.342;2022-10-16T00:50:39;14.90;99.90
17348;DHT22;8791;50.876;4.342;2022-10-16T00:53:09;14.90;99.90
17348;DHT22;8791;50.876;4.342;2022-10-16T00:55:36;14.70;99.90
17348;DHT22;8791;50.876;4.342;2022-10-16T00:58:03;14.70;99.90
17348;DHT22;8791;50.876;4.342;2022-10-16T01:00:31;14.60;99.90
17348;DHT22;8791;50.876;4.342;2022-10-16T01:03:00;14.60;99.90
17348;DHT22;8791;50.876;4.342;2022-10-16T01:05:33;14.70;99.90
17348;DHT22;8791;50.876;4.342;2022-10-16T01:08:09;14.70;99.90
17348;DHT22;8791;50.876;4.342;2022-10-16T01:10:42;14.80;99.90
17348;DHT22;8791;50.876;4.342;2022-10-16T01:13:18;14.70;99.90
17348;DHT22;8791;50.876;4.342;2022-10-16T01:15:51;14.60;99.90
17348;DHT22;8791;50.876;4.342;2022-10-16T01:18:26;14.60;99.90
17348;DHT22;8791;50.876;4.342;2022-10-16T01:21:01;14.60;99.90
17348;DHT22;8791;50.876;4.342;2022-10-16T01:23:39;14.60;99.90
17348;DHT22;8791;50.876;4.342;2022-10-16T01:26:28;14.60;99.90
17348;DHT22;8791;50.876;4.342;2022-10-16T01:29:03;14.50;99.90
17348;DHT22;8791;50.876;4.342;2022-10-16T01:31:35;14.50;99.90
17348;DHT22;8791;50.876;4.342;2022-10-16T01:34:06;14.60;99.90
17348;DHT22;8791;50.876;4.342;2022-10-16T01:36:38;14.60;99.90
17348;DHT22;8791;50.876;4.342;2022-10-16T01:39:08;14.60;99.90
17348;DHT22;8791;50.876;4.342;2022-10-16T01:41:39;14.50;99.90
17348;DHT22;8791;50.876;4.342;2022-10-16T01:44:11;14.40;99.90
17348;DHT22;8791;50.876;4.342;2022-10-16T01:46:43;14.40;99.90
17348;DHT22;8791;50.876;4.342;2022-10-16T01:49:12;14.50;99.90
17348;DHT22;8791;50.876;4.342;2022-10-16T01:51:39;14.40;99.90
17348;DHT22;8791;50.876;4.342;2022-10-16T01:54:08;14.50;99.90
17348;DHT22;8791;50.876;4.342;2022-10-16T01:56:37;14.50;99.90
17348;DHT22;8791;50.876;4.342;2022-10-16T01:59:06;14.50;99.90
17348;DHT22;8791;50.876;4.342;2022-10-16T02:01:39;14.50;99.90
17348;DHT22;8791;50.876;4.342;2022-10-16T02:04:13;14.50;99.90
17348;DHT22;8791;50.876;4.342;2022-10-16T02:06:41;14.50;99.90
17348;DHT22;8791;50.876;4.342;2022-10-16T02:09:08;14.50;99.90
17348;DHT22;8791;50.876;4.342;2022-10-16T02:11:35;14.50;99.90
17348;DHT22;8791;50.876;4.342;2022-10-16T02:14:04;14.40;99.90
17348;DHT22;8791;50.876;4.342;2022-10-16T02:16:38;14.40;99.90
17348;DHT22;8791;50.876;4.342;2022-10-16T02:19:05;14.40;99.90
17348;DHT22;8791;50.876;4.342;2022-10-16T02:21:39;14.40;99.90
17348;DHT22;8791;50.876;4.342;2022-10-16T02:24:09;14.50;99.90
17348;DHT22;8791;50.876;4.342;2022-10-16T02:26:43;14.50;99.90
17348;DHT22;8791;50.876;4.342;2022-10-16T02:29:17;14.40;99.90
17348;DHT22;8791;50.876;4.342;2022-10-16T02:31:50;14.40;99.90
17348;DHT22;8791;50.876;4.342;2022-10-16T02:34:21;14.40;99.90
17348;DHT22;8791;50.876;4.342;2022-10-16T02:36:50;14.40;99.90
17348;DHT22;8791;50.876;4.342;2022-10-16T02:39:18;14.30;99.90
17348;DHT22;8791;50.876;4.342;2022-10-16T02:41:46;14.20;99.90
17348;DHT22;8791;50.876;4.342;2022-10-16T02:44:12;14.20;99.90
17348;DHT22;8791;50.876;4.342;2022-10-16T02:46:39;14.30;99.90
17348;DHT22;8791;50.876;4.342;2022-10-16T02:49:07;14.30;99.90
17348;DHT22;8791;50.876;4.342;2022-10-16T02:51:34;14.30;99.90
17348;DHT22;8791;50.876;4.342;2022-10-16T02:54:01;14.20;99.90
17348;DHT22;8791;50.876;4.342;2022-10-16T02:56:28;14.30;99.90
17348;DHT22;8791;50.876;4.342;2022-10-16T02:58:56;14.20;99.90
17348;DHT22;8791;50.876;4.342;2022-10-16T03:01:23;14.30;99.90
17348;DHT22;8791;50.876;4.342;2022-10-16T03:03:50;14.30;99.90
17348;DHT22;8791;50.876;4.342;2022-10-16T03:06:18;14.20;99.90
17348;DHT22;8791;50.876;4.342;2022-10-16T03:08:45;14.10;99.90
17348;DHT22;8791;50.876;4.342;2022-10-16T03:11:12;14.20;99.90
17348;DHT22;8791;50.876;4.342;2022-10-16T03:13:39;14.20;99.90
17348;DHT22;8791;50.876;4.342;2022-10-16T03:16:05;14.30;99.90
17348;DHT22;8791;50.876;4.342;2022-10-16T03:18:32;14.30;99.90
17348;DHT22;8791;50.876;4.342;2022-10-16T03:20:59;14.40;99.90
17348;DHT22;8791;50.876;4.342;2022-10-16T03:23:27;14.40;99.90
17348;DHT22;8791;50.876;4.342;2022-10-16T03:25:54;14.40;99.90
17348;DHT22;8791;50.876;4.342;2022-10-16T03:28:21;14.40;99.90
17348;DHT22;8791;50.876;4.342;2022-10-16T03:30:48;14.50;99.90
17348;DHT22;8791;50.876;4.342;2022-10-16T03:33:14;14.40;99.90
17348;DHT22;8791;50.876;4.342;2022-10-16T03:35:41;14.40;99.90
17348;DHT22;8791;50.876;4.342;2022-10-16T03:38:08;14.40;99.90
17348;DHT22;8791;50.876;4.342;2022-10-16T03:40:36;14.40;99.90
17348;DHT22;8791;50.876;4.342;2022-10-16T03:43:03;14.30;99.90
17348;DHT22;8791;50.876;4.342;2022-10-16T03:45:30;14.30;99.90
17348;DHT22;8791;50.876;4.342;2022-10-16T03:47:57;14.30;99.90
17348;DHT22;8791;50.876;4.342;2022-10-16T03:50:23;14.40;99.90
17348;DHT22;8791;50.876;4.342;2022-10-16T03:52:50;14.40;99.90
17348;DHT22;8791;50.876;4.342;2022-10-16T03:55:17;14.50;99.90
17348;DHT22;8791;50.876;4.342;2022-10-16T03:57:45;14.50;99.90
17348;DHT22;8791;50.876;4.342;2022-10-16T04:00:12;14.40;99.90
17348;DHT22;8791;50.876;4.342;2022-10-16T04:02:39;14.40;99.90
17348;DHT22;8791;50.876;4.342;2022-10-16T04:05:07;14.40;99.90
17348;DHT22;8791;50.876;4.342;2022-10-16T04:07:34;14.50;99.90
17348;DHT22;8791;50.876;4.342;2022-10-16T04:10:01;14.50;99.90
17348;DHT22;8791;50.876;4.342;2022-10-16T04:12:28;14.50;99.90
17348;DHT22;8791;50.876;4.342;2022-10-16T04:14:56;14.40;99.90
17348;DHT22;8791;50.876;4.342;2022-10-16T04:17:23;14.30;99.90
17348;DHT22;8791;50.876;4.342;2022-10-16T04:19:49;14.40;99.90
17348;DHT22;8791;50.876;4.342;2022-10-16T04:22:16;14.30;99.90
17348;DHT22;8791;50.876;4.342;2022-10-16T04:24:43;14.30;99.90
17348;DHT22;8791;50.876;4.342;2022-10-16T04:27:10;14.30;99.90
17348;DHT22;8791;50.876;4.342;2022-10-16T04:29:36;14.40;99.90
17348;DHT22;8791;50.876;4.342;2022-10-16T04:32:05;14.40;99.90
17348;DHT22;8791;50.876;4.342;2022-10-16T04:34:31;14.40;99.90
17348;DHT22;8791;50.876;4.342;2022-10-16T04:36:58;14.30;99.90
17348;DHT22;8791;50.876;4.342;2022-10-16T04:39:25;14.30;99.90
17348;DHT22;8791;50.876;4.342;2022-10-16T04:41:52;14.30;99.90
17348;DHT22;8791;50.876;4.342;2022-10-16T04:44:18;14.40;99.90
17348;DHT22;8791;50.876;4.342;2022-10-16T04:46:45;14.30;99.90
17348;DHT22;8791;50.876;4.342;2022-10-16T04:49:13;14.20;99.90
17348;DHT22;8791;50.876;4.342;2022-10-16T04:51:40;14.20;99.90
17348;DHT22;8791;50.876;4.342;2022-10-16T04:54:07;14.20;99.90
17348;DHT22;8791;50.876;4.342;2022-10-16T04:56:34;14.20;99.90
17348;DHT22;8791;50.876;4.342;2022-10-16T04:59:08;14.20;99.90
17348;DHT22;8791;50.876;4.342;2022-10-16T05:01:35;14.20;99.90
17348;DHT22;8791;50.876;4.342;2022-10-16T05:04:02;14.20;99.90
17348;DHT22;8791;50.876;4.342;2022-10-16T05:06:30;14.20;99.90
17348;DHT22;8791;50.876;4.342;2022-10-16T05:08:57;14.20;99.90
17348;DHT22;8791;50.876;4.342;2022-10-16T05:11:24;14.20;99.90
17348;DHT22;8791;50.876;4.342;2022-10-16T05:13:51;14.20;99.90
17348;DHT22;8791;50.876;4.342;2022-10-16T05:16:17;14.10;99.90
17348;DHT22;8791;50.876;4.342;2022-10-16T05:18:44;14.10;99.90
17348;DHT22;8791;50.876;4.342;2022-10-16T05:21:11;14.10;99.90
17348;DHT22;8791;50.876;4.342;2022-10-16T05:23:39;14.10;99.90
17348;DHT22;8791;50.876;4.342;2022-10-16T05:26:06;14.10;99.90
17348;DHT22;8791;50.876;4.342;2022-10-16T05:28:33;14.10;99.90
17348;DHT22;8791;50.876;4.342;2022-10-16T05:31:04;14.10;99.90
17348;DHT22;8791;50.876;4.342;2022-10-16T05:33:31;13.90;99.90
17348;DHT22;8791;50.876;4.342;2022-10-16T05:36:01;13.80;99.90
17348;DHT22;8791;50.876;4.342;2022-10-16T05:38:28;13.80;99.90
17348;DHT22;8791;50.876;4.342;2022-10-16T05:40:56;13.80;99.90
17348;DHT22;8791;50.876;4.342;2022-10-16T05:43:23;13.80;99.90
17348;DHT22;8791;50.876;4.342;2022-10-16T05:45:56;13.80;99.90
17348;DHT22;8791;50.876;4.342;2022-10-16T05:48:23;13.80;99.90
17348;DHT22;8791;50.876;4.342;2022-10-16T05:50:56;13.80;99.90
17348;DHT22;8791;50.876;4.342;2022-10-16T05:53:24;13.80;99.90
17348;DHT22;8791;50.876;4.342;2022-10-16T05:55:52;13.90;99.90
17348;DHT22;8791;50.876;4.342;2022-10-16T05:58:20;13.80;99.90
17348;DHT22;8791;50.876;4.342;2022-10-16T06:00:53;13.80;99.90
17348;DHT22;8791;50.876;4.342;2022-10-16T06:03:20;13.80;99.90
17348;DHT22;8791;50.876;4.342;2022-10-16T06:05:47;13.90;99.90
17348;DHT22;8791;50.876;4.342;2022-10-16T06:08:14;13.90;99.90
17348;DHT22;8791;50.876;4.342;2022-10-16T06:10:41;14.00;99.90
17348;DHT22;8791;50.876;4.342;2022-10-16T06:13:08;13.90;99.90
17348;DHT22;8791;50.876;4.342;2022-10-16T06:15:36;13.90;99.90
17348;DHT22;8791;50.876;4.342;2022-10-16T06:18:04;13.90;99.90
17348;DHT22;8791;50.876;4.342;2022-10-16T06:20:31;14.00;99.90
17348;DHT22;8791;50.876;4.342;2022-10-16T06:22:58;13.90;99.90
17348;DHT22;8791;50.876;4.342;2022-10-16T06:25:24;14.00;99.90
17348;DHT22;8791;50.876;4.342;2022-10-16T06:27:51;14.10;99.90
17348;DHT22;8791;50.876;4.342;2022-10-16T06:30:18;14.00;99.90
17348;DHT22;8791;50.876;4.342;2022-10-16T06:32:46;14.00;99.90
17348;DHT22;8791;50.876;4.342;2022-10-16T06:35:13;14.00;99.90
17348;DHT22;8791;50.876;4.342;2022-10-16T06:37:40;14.00;99.90
17348;DHT22;8791;50.876;4.342;2022-10-16T06:40:07;14.00;99.90
17348;DHT22;8791;50.876;4.342;2022-10-16T06:42:34;14.10;99.90
17348;DHT22;8791;50.876;4.342;2022-10-16T06:45:01;14.00;99.90
17348;DHT22;8791;50.876;4.342;2022-10-16T06:47:28;14.10;99.90
17348;DHT22;8791;50.876;4.342;2022-10-16T06:49:56;14.10;99.90
17348;DHT22;8791;50.876;4.342;2022-10-16T06:52:23;14.00;99.90
17348;DHT22;8791;50.876;4.342;2022-10-16T06:54:50;14.00;99.90
17348;DHT22;8791;50.876;4.342;2022-10-16T06:57:17;14.10;99.90
17348;DHT22;8791;50.876;4.342;2022-10-16T06:59:44;14.10;99.90
17348;DHT22;8791;50.876;4.342;2022-10-16T07:02:11;14.20;99.90
17348;DHT22;8791;50.876;4.342;2022-10-16T07:04:37;14.30;99.90
17348;DHT22;8791;50.876;4.342;2022-10-16T07:07:05;14.30;99.90
17348;DHT22;8791;50.876;4.342;2022-10-16T07:09:32;14.30;99.90
17348;DHT22;8791;50.876;4.342;2022-10-16T07:11:59;14.30;99.90
17348;DHT22;8791;50.876;4.342;2022-10-16T07:14:26;14.40;99.90
17348;DHT22;8791;50.876;4.342;2022-10-16T07:16:53;14.30;99.90
17348;DHT22;8791;50.876;4.342;2022-10-16T07:19:20;14.30;99.90
17348;DHT22;8791;50.876;4.342;2022-10-16T07:21:47;14.30;99.90
17348;DHT22;8791;50.876;4.342;2022-10-16T07:24:16;14.30;99.90
17348;DHT22;8791;50.876;4.342;2022-10-16T07:26:44;14.40;99.90
17348;DHT22;8791;50.876;4.342;2022-10-16T07:29:13;14.40;99.90
17348;DHT22;8791;50.876;4.342;2022-10-16T07:31:40;14.40;99.90
17348;DHT22;8791;50.876;4.342;2022-10-16T07:34:07;14.50;99.90
17348;DHT22;8791;50.876;4.342;2022-10-16T07:36:34;14.70;99.90
17348;DHT22;8791;50.876;4.342;2022-10-16T07:39:01;14.60;99.90
17348;DHT22;8791;50.876;4.342;2022-10-16T07:41:29;14.70;99.90
17348;DHT22;8791;50.876;4.342;2022-10-16T07:43:58;14.60;99.90
17348;DHT22;8791;50.876;4.342;2022-10-16T07:46:26;14.60;99.90
17348;DHT22;8791;50.876;4.342;2022-10-16T07:48:53;14.70;99.90
17348;DHT22;8791;50.876;4.342;2022-10-16T07:51:23;14.90;99.90
17348;DHT22;8791;50.876;4.342;2022-10-16T07:53:51;15.00;99.90
17348;DHT22;8791;50.876;4.342;2022-10-16T07:56:18;15.10;99.90
17348;DHT22;8791;50.876;4.342;2022-10-16T07:58:47;15.30;99.90
17348;DHT22;8791;50.876;4.342;2022-10-16T08:01:16;15.60;99.90
17348;DHT22;8791;50.876;4.342;2022-10-16T08:03:44;15.80;99.90
17348;DHT22;8791;50.876;4.342;2022-10-16T08:06:14;15.70;99.90
17348;DHT22;8791;50.876;4.342;2022-10-16T08:08:41;15.70;99.90
17348;DHT22;8791;50.876;4.342;2022-10-16T08:11:08;15.70;99.90
17348;DHT22;8791;50.876;4.342;2022-10-16T08:13:35;15.70;99.90
17348;DHT22;8791;50.876;4.342;2022-10-16T08:16:04;15.80;99.90
17348;DHT22;8791;50.876;4.342;2022-10-16T08:18:34;15.70;99.90
17348;DHT22;8791;50.876;4.342;2022-10-16T08:21:03;15.70;99.90
17348;DHT22;8791;50.876;4.342;2022-10-16T08:23:30;15.80;99.90
17348;DHT22;8791;50.876;4.342;2022-10-16T08:26:02;15.70;99.90
17348;DHT22;8791;50.876;4.342;2022-10-16T08:28:30;15.80;99.90
17348;DHT22;8791;50.876;4.342;2022-10-16T08:31:06;15.80;99.90
17348;DHT22;8791;50.876;4.342;2022-10-16T08:33:33;15.60;99.90
17348;DHT22;8791;50.876;4.342;2022-10-16T08:36:01;15.60;99.90
17348;DHT22;8791;50.876;4.342;2022-10-16T08:38:28;15.60;99.90
17348;DHT22;8791;50.876;4.342;2022-10-16T08:41:01;15.60;99.90
17348;DHT22;8791;50.876;4.342;2022-10-16T08:43:40;15.90;99.90
17348;DHT22;8791;50.876;4.342;2022-10-16T08:46:24;16.00;99.90
17348;DHT22;8791;50.876;4.342;2022-10-16T08:48:58;16.00;99.90
17348;DHT22;8791;50.876;4.342;2022-10-16T08:51:28;16.10;99.90
17348;DHT22;8791;50.876;4.342;2022-10-16T08:53:58;16.20;99.90
17348;DHT22;8791;50.876;4.342;2022-10-16T08:56:26;16.20;99.90
17348;DHT22;8791;50.876;4.342;2022-10-16T08:58:54;16.10;99.90
17348;DHT22;8791;50.876;4.342;2022-10-16T09:01:38;16.10;99.90
17348;DHT22;8791;50.876;4.342;2022-10-16T09:07:11;16.40;99.90
17348;DHT22;8791;50.876;4.342;2022-10-16T09:09:50;16.50;99.90
17348;DHT22;8791;50.876;4.342;2022-10-16T09:12:25;16.60;99.90
17348;DHT22;8791;50.876;4.342;2022-10-16T09:15:01;16.50;99.90
17348;DHT22;8791;50.876;4.342;2022-10-16T09:17:44;16.60;99.90
17348;DHT22;8791;50.876;4.342;2022-10-16T09:20:22;16.80;99.90
17348;DHT22;8791;50.876;4.342;2022-10-16T09:25:26;17.10;99.90
17348;DHT22;8791;50.876;4.342;2022-10-16T09:27:53;17.30;99.90
17348;DHT22;8791;50.876;4.342;2022-10-16T09:30:21;17.30;99.90
17348;DHT22;8791;50.876;4.342;2022-10-16T09:32:52;17.50;99.90
17348;DHT22;8791;50.876;4.342;2022-10-16T09:35:22;17.70;99.90
17348;DHT22;8791;50.876;4.342;2022-10-16T09:37:54;17.60;99.90
17348;DHT22;8791;50.876;4.342;2022-10-16T09:40:26;17.70;99.90
17348;DHT22;8791;50.876;4.342;2022-10-16T09:43:01;17.60;99.90
17348;DHT22;8791;50.876;4.342;2022-10-16T09:45:29;17.80;99.90
17348;DHT22;8791;50.876;4.342;2022-10-16T09:47:57;17.80;99.90
17348;DHT22;8791;50.876;4.342;2022-10-16T09:50:25;17.50;99.90
17348;DHT22;8791;50.876;4.342;2022-10-16T09:53:10;17.60;99.90
17348;DHT22;8791;50.876;4.342;2022-10-16T09:55:48;17.70;99.90
17348;DHT22;8791;50.876;4.342;2022-10-16T09:58:15;17.90;99.90
17348;DHT22;8791;50.876;4.342;2022-10-16T10:00:49;18.20;99.90
17348;DHT22;8791;50.876;4.342;2022-10-16T10:03:30;18.30;99.90
17348;DHT22;8791;50.876;4.342;2022-10-16T10:06:01;18.30;99.90
17348;DHT22;8791;50.876;4.342;2022-10-16T10:08:30;18.30;99.90
17348;DHT22;8791;50.876;4.342;2022-10-16T10:10:57;18.10;99.90
17348;DHT22;8791;50.876;4.342;2022-10-16T10:13:25;18.20;99.90
17348;DHT22;8791;50.876;4.342;2022-10-16T10:15:53;18.00;99.90
17348;DHT22;8791;50.876;4.342;2022-10-16T10:18:22;18.00;99.90
17348;DHT22;8791;50.876;4.342;2022-10-16T10:20:58;18.00;99.90
17348;DHT22;8791;50.876;4.342;2022-10-16T10:23:27;18.20;99.90
17348;DHT22;8791;50.876;4.342;2022-10-16T10:26:00;18.40;99.90
17348;DHT22;8791;50.876;4.342;2022-10-16T10:28:47;18.30;99.90
17348;DHT22;8791;50.876;4.342;2022-10-16T10:31:26;18.40;99.90
17348;DHT22;8791;50.876;4.342;2022-10-16T10:34:01;18.60;99.90
17348;DHT22;8791;50.876;4.342;2022-10-16T10:36:34;18.80;99.90
17348;DHT22;8791;50.876;4.342;2022-10-16T10:39:05;18.80;99.90
17348;DHT22;8791;50.876;4.342;2022-10-16T10:42:02;18.90;99.90
17348;DHT22;8791;50.876;4.342;2022-10-16T10:47:34;18.80;99.90
17348;DHT22;8791;50.876;4.342;2022-10-16T10:50:10;18.90;99.90
17348;DHT22;8791;50.876;4.342;2022-10-16T10:52:47;19.10;99.90
17348;DHT22;8791;50.876;4.342;2022-10-16T10:55:23;19.20;99.90
17348;DHT22;8791;50.876;4.342;2022-10-16T10:58:22;19.00;99.90
17348;DHT22;8791;50.876;4.342;2022-10-16T11:00:57;19.10;99.90
17348;DHT22;8791;50.876;4.342;2022-10-16T11:03:40;19.30;99.90
17348;DHT22;8791;50.876;4.342;2022-10-16T11:06:14;19.50;99.90
17348;DHT22;8791;50.876;4.342;2022-10-16T11:08:46;19.60;99.90
17348;DHT22;8791;50.876;4.342;2022-10-16T11:11:22;19.50;99.90
17348;DHT22;8791;50.876;4.342;2022-10-16T11:13:57;19.40;99.90
17348;DHT22;8791;50.876;4.342;2022-10-16T11:16:30;19.40;99.90
17348;DHT22;8791;50.876;4.342;2022-10-16T11:19:11;19.20;99.90
17348;DHT22;8791;50.876;4.342;2022-10-16T11:21:44;19.20;99.90
17348;DHT22;8791;50.876;4.342;2022-10-16T11:24:18;19.40;99.90
17348;DHT22;8791;50.876;4.342;2022-10-16T11:26:47;19.40;99.90
17348;DHT22;8791;50.876;4.342;2022-10-16T11:29:25;19.20;99.90
17348;DHT22;8791;50.876;4.342;2022-10-16T11:31:57;19.40;99.90
17348;DHT22;8791;50.876;4.342;2022-10-16T11:34:30;19.60;99.90
17348;DHT22;8791;50.876;4.342;2022-10-16T11:37:05;19.60;99.90
17348;DHT22;8791;50.876;4.342;2022-10-16T11:39:35;19.70;99.90
17348;DHT22;8791;50.876;4.342;2022-10-16T11:42:09;19.70;99.90
17348;DHT22;8791;50.876;4.342;2022-10-16T11:44:48;19.60;99.90
17348;DHT22;8791;50.876;4.342;2022-10-16T11:47:25;19.70;99.90
17348;DHT22;8791;50.876;4.342;2022-10-16T11:49:58;19.60;99.90
17348;DHT22;8791;50.876;4.342;2022-10-16T11:52:33;19.50;99.90
17348;DHT22;8791;50.876;4.342;2022-10-16T11:55:09;19.70;99.90
17348;DHT22;8791;50.876;4.342;2022-10-16T11:57:42;19.40;99.90
17348;DHT22;8791;50.876;4.342;2022-10-16T12:00:19;19.50;99.90
17348;DHT22;8791;50.876;4.342;2022-10-16T12:02:54;19.50;99.90
17348;DHT22;8791;50.876;4.342;2022-10-16T12:05:28;19.60;99.90
17348;DHT22;8791;50.876;4.342;2022-10-16T12:08:06;19.70;99.90
17348;DHT22;8791;50.876;4.342;2022-10-16T12:10:35;20.00;99.90
17348;DHT22;8791;50.876;4.342;2022-10-16T12:13:03;20.00;99.90
17348;DHT22;8791;50.876;4.342;2022-10-16T12:15:32;20.00;99.90
17348;DHT22;8791;50.876;4.342;2022-10-16T12:18:00;20.00;99.90
17348;DHT22;8791;50.876;4.342;2022-10-16T12:20:29;20.00;99.90
17348;DHT22;8791;50.876;4.342;2022-10-16T12:23:00;20.30;99.90
17348;DHT22;8791;50.876;4.342;2022-10-16T12:25:30;19.60;99.90
17348;DHT22;8791;50.876;4.342;2022-10-16T12:28:03;19.50;99.90
17348;DHT22;8791;50.876;4.342;2022-10-16T12:30:32;19.40;99.90
17348;DHT22;8791;50.876;4.342;2022-10-16T12:33:01;19.60;99.90
17348;DHT22;8791;50.876;4.342;2022-10-16T12:35:30;19.90;99.90
17348;DHT22;8791;50.876;4.342;2022-10-16T12:38:08;20.10;99.90
17348;DHT22;8791;50.876;4.342;2022-10-16T12:40:39;20.00;99.90
17348;DHT22;8791;50.876;4.342;2022-10-16T12:43:25;19.90;99.90
17348;DHT22;8791;50.876;4.342;2022-10-16T12:46:00;20.00;99.90
17348;DHT22;8791;50.876;4.342;2022-10-16T12:48:27;19.70;99.90
17348;DHT22;8791;50.876;4.342;2022-10-16T12:50:55;19.60;99.90
17348;DHT22;8791;50.876;4.342;2022-10-16T12:53:25;19.80;99.90
17348;DHT22;8791;50.876;4.342;2022-10-16T12:56:02;19.80;99.90
17348;DHT22;8791;50.876;4.342;2022-10-16T12:58:46;20.10;99.90
17348;DHT22;8791;50.876;4.342;2022-10-16T13:01:27;20.10;99.90
17348;DHT22;8791;50.876;4.342;2022-10-16T13:04:16;20.20;99.90
17348;DHT22;8791;50.876;4.342;2022-10-16T13:06:51;20.40;99.90
17348;DHT22;8791;50.876;4.342;2022-10-16T13:09:30;20.20;99.90
17348;DHT22;8791;50.876;4.342;2022-10-16T13:12:21;20.00;99.90
17348;DHT22;8791;50.876;4.342;2022-10-16T13:15:16;19.80;99.90
17348;DHT22;8791;50.876;4.342;2022-10-16T13:17:53;19.60;99.90
17348;DHT22;8791;50.876;4.342;2022-10-16T13:20:28;19.60;99.90
17348;DHT22;8791;50.876;4.342;2022-10-16T13:23:04;19.90;99.90
17348;DHT22;8791;50.876;4.342;2022-10-16T13:25:47;20.00;99.90
17348;DHT22;8791;50.876;4.342;2022-10-16T13:28:17;20.10;99.90
17348;DHT22;8791;50.876;4.342;2022-10-16T13:30:52;19.90;99.90
17348;DHT22;8791;50.876;4.342;2022-10-16T13:33:24;19.80;99.90
17348;DHT22;8791;50.876;4.342;2022-10-16T13:35:55;20.10;99.90
17348;DHT22;8791;50.876;4.342;2022-10-16T13:38:23;20.00;99.90
17348;DHT22;8791;50.876;4.342;2022-10-16T13:40:54;19.80;99.90
17348;DHT22;8791;50.876;4.342;2022-10-16T13:43:25;20.00;99.90
17348;DHT22;8791;50.876;4.342;2022-10-16T13:45:54;20.10;99.90
17348;DHT22;8791;50.876;4.342;2022-10-16T13:48:21;19.90;99.90
17348;DHT22;8791;50.876;4.342;2022-10-16T13:50:59;19.70;99.90
17348;DHT22;8791;50.876;4.342;2022-10-16T13:53:26;19.80;99.90
17348;DHT22;8791;50.876;4.342;2022-10-16T13:55:54;19.80;99.90
17348;DHT22;8791;50.876;4.342;2022-10-16T13:58:21;19.80;99.90
17348;DHT22;8791;50.876;4.342;2022-10-16T14:00:56;19.60;99.90
17348;DHT22;8791;50.876;4.342;2022-10-16T14:03:23;19.60;99.90
17348;DHT22;8791;50.876;4.342;2022-10-16T14:05:52;19.70;99.90
17348;DHT22;8791;50.876;4.342;2022-10-16T14:08:20;19.50;99.90
17348;DHT22;8791;50.876;4.342;2022-10-16T14:10:48;19.40;99.90
17348;DHT22;8791;50.876;4.342;2022-10-16T14:13:19;19.50;99.90
17348;DHT22;8791;50.876;4.342;2022-10-16T14:15:47;19.60;99.90
17348;DHT22;8791;50.876;4.342;2022-10-16T14:18:19;19.60;99.90
17348;DHT22;8791;50.876;4.342;2022-10-16T14:20:47;19.40;99.90
17348;DHT22;8791;50.876;4.342;2022-10-16T14:23:22;19.40;99.90
17348;DHT22;8791;50.876;4.342;2022-10-16T14:25:52;19.50;99.90
17348;DHT22;8791;50.876;4.342;2022-10-16T14:28:21;19.30;99.90
17348;DHT22;8791;50.876;4.342;2022-10-16T14:30:52;19.50;99.90
17348;DHT22;8791;50.876;4.342;2022-10-16T14:33:22;19.50;99.90
17348;DHT22;8791;50.876;4.342;2022-10-16T14:36:01;19.50;99.90
17348;DHT22;8791;50.876;4.342;2022-10-16T14:38:28;19.50;99.90
17348;DHT22;8791;50.876;4.342;2022-10-16T14:40:57;19.60;99.90
17348;DHT22;8791;50.876;4.342;2022-10-16T14:43:32;19.60;99.90
17348;DHT22;8791;50.876;4.342;2022-10-16T14:45:59;19.80;99.90
17348;DHT22;8791;50.876;4.342;2022-10-16T14:48:28;19.80;99.90
17348;DHT22;8791;50.876;4.342;2022-10-16T14:50:55;19.70;99.90
17348;DHT22;8791;50.876;4.342;2022-10-16T14:53:22;19.50;99.90
17348;DHT22;8791;50.876;4.342;2022-10-16T14:55:49;19.60;99.90
17348;DHT22;8791;50.876;4.342;2022-10-16T14:58:18;19.70;99.90
17348;DHT22;8791;50.876;4.342;2022-10-16T15:00:47;19.70;99.90
17348;DHT22;8791;50.876;4.342;2022-10-16T15:03:14;19.60;99.90
17348;DHT22;8791;50.876;4.342;2022-10-16T15:05:41;19.30;99.90
17348;DHT22;8791;50.876;4.342;2022-10-16T15:08:08;19.30;99.90
17348;DHT22;8791;50.876;4.342;2022-10-16T15:10:38;19.30;99.90
17348;DHT22;8791;50.876;4.342;2022-10-16T15:13:06;19.30;99.90
17348;DHT22;8791;50.876;4.342;2022-10-16T15:15:35;19.10;99.90
17348;DHT22;8791;50.876;4.342;2022-10-16T15:18:04;19.10;99.90
17348;DHT22;8791;50.876;4.342;2022-10-16T15:20:32;19.20;99.90
17348;DHT22;8791;50.876;4.342;2022-10-16T15:23:00;19.10;99.90
17348;DHT22;8791;50.876;4.342;2022-10-16T15:25:31;19.10;99.90
17348;DHT22;8791;50.876;4.342;2022-10-16T15:27:59;19.10;99.90
17348;DHT22;8791;50.876;4.342;2022-10-16T15:30:26;19.30;99.90
17348;DHT22;8791;50.876;4.342;2022-10-16T15:32:53;19.40;99.90
17348;DHT22;8791;50.876;4.342;2022-10-16T15:35:21;19.20;99.90
17348;DHT22;8791;50.876;4.342;2022-10-16T15:37:48;19.30;99.90
17348;DHT22;8791;50.876;4.342;2022-10-16T15:40:16;19.40;99.90
17348;DHT22;8791;50.876;4.342;2022-10-16T15:42:43;19.20;99.90
17348;DHT22;8791;50.876;4.342;2022-10-16T15:45:11;19.20;99.90
17348;DHT22;8791;50.876;4.342;2022-10-16T15:47:39;19.20;99.90
17348;DHT22;8791;50.876;4.342;2022-10-16T15:50:08;19.20;99.90
17348;DHT22;8791;50.876;4.342;2022-10-16T15:52:37;19.10;99.90
17348;DHT22;8791;50.876;4.342;2022-10-16T15:55:06;19.20;99.90
17348;DHT22;8791;50.876;4.342;2022-10-16T15:57:33;19.10;99.90
17348;DHT22;8791;50.876;4.342;2022-10-16T16:00:00;19.20;99.90
17348;DHT22;8791;50.876;4.342;2022-10-16T16:02:27;19.10;99.90
17348;DHT22;8791;50.876;4.342;2022-10-16T16:04:53;19.10;99.90
17348;DHT22;8791;50.876;4.342;2022-10-16T16:07:20;19.00;99.90
17348;DHT22;8791;50.876;4.342;2022-10-16T16:09:48;18.90;99.90
17348;DHT22;8791;50.876;4.342;2022-10-16T16:12:15;19.10;99.90